createdAt,value
2018-09-19T00:00:40.532Z,100955.53
2018-09-19T00:03:09.520Z,100955.82
2018-09-19T00:05:38.496Z,100954.17
2018-09-19T00:08:07.417Z,100965.32
2018-09-19T00:10:36.241Z,100962.31
2018-09-19T00:13:05.025Z,100964.73
2018-09-19T00:15:33.832Z,100969.33
2018-09-19T00:18:02.532Z,100964.65
2018-09-19T00:20:31.344Z,100968.98
2018-09-19T00:23:00.118Z,100968.13
2018-09-19T00:25:29.182Z,100974.28
2018-09-19T00:27:58.641Z,100978.59
2018-09-19T00:30:27.501Z,100983.70
2018-09-19T00:32:56.325Z,100981.75
2018-09-19T00:35:25.396Z,100988.20
2018-09-19T00:37:54.707Z,100997.64
2018-09-19T00:40:23.795Z,100994.84
2018-09-19T00:42:53.069Z,101000.20
2018-09-19T00:45:22.571Z,100999.30
2018-09-19T00:47:51.395Z,100997.62
2018-09-19T00:50:20.695Z,101001.39
2018-09-19T00:52:49.569Z,100999.44
2018-09-19T00:55:18.373Z,101004.01
2018-09-19T00:57:47.255Z,101009.90
2018-09-19T01:00:16.479Z,101018.50
2018-09-19T01:02:45.470Z,101020.58
2018-09-19T01:05:14.332Z,101013.73
2018-09-19T01:07:43.498Z,101019.69
2018-09-19T01:10:12.724Z,101020.81
2018-09-19T01:12:41.900Z,101019.16
2018-09-19T01:15:10.898Z,101031.09
2018-09-19T01:17:39.824Z,101031.26
2018-09-19T01:20:08.907Z,101032.38
2018-09-19T01:22:38.338Z,101040.02
2018-09-19T01:25:07.198Z,101048.98
2018-09-19T01:27:36.048Z,101051.23
2018-09-19T01:30:05.126Z,101063.73
2018-09-19T01:32:33.978Z,101068.10
2018-09-19T01:35:02.754Z,101077.63
2018-09-19T01:37:31.867Z,101087.19
2018-09-19T01:40:00.901Z,101089.97
2018-09-19T01:42:29.669Z,101100.03
2018-09-19T01:44:58.461Z,101107.11
2018-09-19T01:47:27.455Z,101107.17
2018-09-19T01:49:56.196Z,101104.77
2018-09-19T01:52:25.231Z,101111.02
2018-09-19T01:54:54.563Z,101118.09
2018-09-19T01:57:23.276Z,101122.69
2018-09-19T01:59:52.037Z,101125.63
2018-09-19T02:02:20.788Z,101140.25
2018-09-19T02:04:49.479Z,101144.84
2018-09-19T02:07:18.299Z,101151.63
2018-09-19T02:09:47.298Z,101152.69
2018-09-19T02:12:16.047Z,101157.52
2018-09-19T02:14:45.707Z,101151.75
2018-09-19T02:17:14.558Z,101154.69
2018-09-19T02:19:43.383Z,101156.05
2018-09-19T02:22:12.164Z,101155.94
2018-09-19T02:24:41.151Z,101162.12
2018-09-19T02:27:09.992Z,101171.83
2018-09-19T02:29:38.728Z,101171.50
2018-09-19T02:32:07.557Z,101169.84
2018-09-19T02:34:36.307Z,101177.38
2018-09-19T02:37:05.064Z,101183.55
2018-09-19T02:39:33.944Z,101178.91
2018-09-19T02:42:03.097Z,101170.55
2018-09-19T02:44:32.076Z,101170.48
2018-09-19T02:47:01.248Z,101177.70
2018-09-19T02:49:30.209Z,101183.31
2018-09-19T02:51:59.990Z,101187.91
2018-09-19T02:54:30.611Z,101181.05
2018-09-19T02:56:59.824Z,101185.08
2018-09-19T02:59:29.025Z,101183.88
2018-09-19T03:01:58.342Z,101184.88
2018-09-19T03:04:27.808Z,101186.36
2018-09-19T03:06:56.614Z,101188.34
2018-09-19T03:09:26.012Z,101194.23
2018-09-19T03:11:55.118Z,101187.16
2018-09-19T03:14:23.905Z,101179.78
2018-09-19T03:16:52.733Z,101187.91
2018-09-19T03:19:22.009Z,101192.13
2018-09-19T03:21:51.750Z,101202.08
2018-09-19T03:24:20.623Z,101207.38
2018-09-19T03:26:49.388Z,101215.72
2018-09-19T03:29:18.471Z,101220.53
2018-09-19T03:31:47.265Z,101217.74
2018-09-19T03:34:16.130Z,101218.22
2018-09-19T03:36:45.671Z,101218.66
2018-09-19T03:39:14.481Z,101224.86
2018-09-19T03:41:43.274Z,101229.44
2018-09-19T03:44:12.031Z,101234.03
2018-09-19T03:46:41.004Z,101226.13
2018-09-19T03:49:10.205Z,101224.16
2018-09-19T03:51:39.817Z,101220.02
2018-09-19T03:54:09.345Z,101226.27
2018-09-19T03:56:38.451Z,101228.92
2018-09-19T03:59:07.186Z,101232.68
2018-09-19T04:01:36.648Z,101240.72
2018-09-19T04:04:05.477Z,101242.55
2018-09-19T04:06:34.372Z,101239.84
2018-09-19T04:09:03.385Z,101242.46
2018-09-19T04:11:32.314Z,101245.34
2018-09-19T04:14:01.614Z,101243.89
2018-09-19T04:16:30.442Z,101239.75
2018-09-19T04:18:59.607Z,101248.03
2018-09-19T04:21:28.761Z,101252.31
2018-09-19T04:23:57.547Z,101257.11
2018-09-19T04:26:26.341Z,101252.44
2018-09-19T04:28:55.146Z,101259.98
2018-09-19T04:31:23.935Z,101268.02
2018-09-19T04:33:53.358Z,101254.95
2018-09-19T04:36:22.367Z,101260.24
2018-09-19T04:38:51.676Z,101256.09
2018-09-19T04:41:20.519Z,101262.55
2018-09-19T04:43:49.589Z,101267.08
2018-09-19T04:46:18.676Z,101264.37
2018-09-19T04:48:47.591Z,101265.20
2018-09-19T04:51:16.485Z,101273.63
2018-09-19T04:53:45.644Z,101267.08
2018-09-19T04:56:14.511Z,101271.97
2018-09-19T04:58:43.519Z,101275.20
2018-09-19T05:01:12.498Z,101278.95
2018-09-19T05:03:41.321Z,101283.97
2018-09-19T05:06:10.188Z,101281.94
2018-09-19T05:08:39.022Z,101281.63
2018-09-19T05:11:07.868Z,101289.02
2018-09-19T05:13:36.655Z,101293.38
2018-09-19T05:16:05.467Z,101286.92
2018-09-19T05:18:34.522Z,101289.16
2018-09-19T05:21:03.689Z,101297.74
2018-09-19T05:23:32.460Z,101296.52
2018-09-19T05:26:01.341Z,101298.17
2018-09-19T05:28:30.435Z,101301.92
2018-09-19T05:30:59.164Z,101307.64
2018-09-19T05:33:28.238Z,101303.28
2018-09-19T05:36:00.097Z,101309.00
2018-09-19T05:38:29.677Z,101314.41
2018-09-19T05:40:58.775Z,101312.13
2018-09-19T05:43:28.388Z,101309.36
2018-09-19T05:45:57.303Z,101317.23
2018-09-19T05:48:27.452Z,101318.34
2018-09-19T05:50:56.203Z,101320.63
2018-09-19T05:53:25.718Z,101322.75
2018-09-19T05:55:55.296Z,101321.83
2018-09-19T05:58:25.028Z,101331.77
2018-09-19T06:00:55.136Z,101332.69
2018-09-19T06:03:25.113Z,101335.98
2018-09-19T06:05:54.172Z,101332.48
2018-09-19T06:08:23.564Z,101338.99
2018-09-19T06:10:52.853Z,101331.64
2018-09-19T06:13:21.726Z,101340.80
2018-09-19T06:15:50.651Z,101346.21
2018-09-19T06:18:19.435Z,101341.02
2018-09-19T06:20:50.046Z,101347.38
2018-09-19T06:23:19.213Z,101345.19
2018-09-19T06:25:48.326Z,101350.53
2018-09-19T06:28:17.666Z,101356.25
2018-09-19T06:30:46.937Z,101352.57
2018-09-19T06:33:16.777Z,101362.23
2018-09-19T06:35:46.424Z,101366.23
2018-09-19T06:38:16.582Z,101366.70
2018-09-19T06:40:47.084Z,101368.06
2018-09-19T06:43:16.186Z,101378.73
2018-09-19T06:45:45.063Z,101375.70
2018-09-19T06:48:13.830Z,101373.72
2018-09-19T06:50:42.635Z,101380.95
2018-09-19T06:53:11.816Z,101382.25
2018-09-19T06:55:40.585Z,101386.44
2018-09-19T06:58:10.129Z,101392.25
2018-09-19T07:00:39.912Z,101395.23
2018-09-19T07:03:08.726Z,101397.66
2018-09-19T07:05:37.942Z,101398.96
2018-09-19T07:08:07.735Z,101399.78
2018-09-19T07:10:36.551Z,101408.36
2018-09-19T07:13:05.474Z,101411.20
2018-09-19T07:15:34.391Z,101411.17
2018-09-19T07:18:03.175Z,101409.50
2018-09-19T07:20:31.985Z,101412.35
2018-09-19T07:23:01.478Z,101415.05
2018-09-19T07:25:30.416Z,101418.91
2018-09-19T07:27:59.731Z,101412.94
2018-09-19T07:30:28.932Z,101416.69
2018-09-19T07:32:58.081Z,101424.95
2018-09-19T07:35:26.947Z,101424.33
2018-09-19T07:37:56.346Z,101422.22
2018-09-19T07:40:25.328Z,101428.48
2018-09-19T07:42:54.125Z,101426.59
2018-09-19T07:45:23.853Z,101432.59
2018-09-19T07:47:52.900Z,101428.32
2018-09-19T07:50:22.790Z,101432.77
2018-09-19T07:52:52.388Z,101435.30
2018-09-19T07:55:21.260Z,101431.47
2018-09-19T07:57:49.984Z,101438.83
2018-09-19T08:00:19.293Z,101437.25
2018-09-19T08:02:48.529Z,101434.17
2018-09-19T08:05:17.543Z,101431.91
2018-09-19T08:07:46.392Z,101434.81
2018-09-19T08:10:15.422Z,101442.55
2018-09-19T08:12:44.188Z,101432.52
2018-09-19T08:15:12.995Z,101441.61
2018-09-19T08:17:42.125Z,101440.25
2018-09-19T08:20:11.148Z,101437.61
2018-09-19T08:22:39.918Z,101438.31
2018-09-19T08:25:08.731Z,101439.12
2018-09-19T08:27:37.841Z,101442.31
2018-09-19T08:30:06.746Z,101444.31
2018-09-19T08:32:35.754Z,101440.95
2018-09-19T08:35:04.965Z,101441.30
2018-09-19T08:37:33.698Z,101435.00
2018-09-19T08:40:02.736Z,101437.93
2018-09-19T08:42:31.497Z,101437.41
2018-09-19T08:45:01.063Z,101431.52
2018-09-19T08:47:30.729Z,101427.62
2018-09-19T08:49:59.965Z,101430.46
2018-09-19T08:52:29.098Z,101437.27
2018-09-19T08:54:58.152Z,101434.15
2018-09-19T08:57:26.943Z,101430.52
2018-09-19T08:59:55.752Z,101441.23
2018-09-19T09:02:24.916Z,101441.34
2018-09-19T09:04:54.107Z,101440.28
2018-09-19T09:07:23.275Z,101440.89
2018-09-19T09:09:52.101Z,101440.09
2018-09-19T09:12:20.969Z,101436.13
2018-09-19T09:14:49.669Z,101438.76
2018-09-19T09:17:18.815Z,101444.73
2018-09-19T09:19:47.874Z,101437.30
2018-09-19T09:22:16.713Z,101444.05
2018-09-19T09:24:46.134Z,101438.51
2018-09-19T09:27:14.976Z,101444.23
2018-09-19T09:29:44.073Z,101437.97
2018-09-19T09:32:12.875Z,101433.81
2018-09-19T09:34:42.065Z,101430.84
2018-09-19T09:37:10.877Z,101441.52
2018-09-19T09:39:39.754Z,101438.49
2018-09-19T09:42:09.051Z,101443.23
2018-09-19T09:44:38.111Z,101437.63
2018-09-19T09:47:07.417Z,101441.19
2018-09-19T09:49:36.761Z,101431.40
2018-09-19T09:52:05.748Z,101433.16
2018-09-19T09:54:35.193Z,101439.63
2018-09-19T09:57:04.733Z,101428.66
2018-09-19T09:59:33.630Z,101434.41
2018-09-19T10:02:05.846Z,101423.61
2018-09-19T10:04:35.426Z,101425.98
2018-09-19T10:07:04.160Z,101423.80
2018-09-19T10:09:32.992Z,101420.60
2018-09-19T10:12:02.182Z,101421.86
2018-09-19T10:14:30.943Z,101424.73
2018-09-19T10:17:00.371Z,101420.20
2018-09-19T10:19:29.582Z,101424.20
2018-09-19T10:21:59.236Z,101427.55
2018-09-19T10:24:28.406Z,101415.11
2018-09-19T10:26:57.501Z,101421.78
2018-09-19T10:29:26.865Z,101407.88
2018-09-19T10:31:56.508Z,101413.28
2018-09-19T10:34:25.298Z,101409.77
2018-09-19T10:36:54.657Z,101407.50
2018-09-19T10:39:23.928Z,101409.16
2018-09-19T10:41:53.267Z,101399.23
2018-09-19T10:44:22.849Z,101389.41
2018-09-19T10:46:52.357Z,101393.08
2018-09-19T10:49:21.390Z,101386.33
2018-09-19T10:51:50.557Z,101387.62
2018-09-19T10:54:19.527Z,101382.37
2018-09-19T10:56:48.454Z,101386.41
2018-09-19T10:59:18.329Z,101389.83
2018-09-19T11:01:47.339Z,101386.72
2018-09-19T11:04:16.673Z,101381.16
2018-09-19T11:06:45.861Z,101381.59
2018-09-19T11:09:15.455Z,101380.20
2018-09-19T11:11:45.050Z,101378.21
2018-09-19T11:14:13.871Z,101377.84
2018-09-19T11:16:48.967Z,101382.22
2018-09-19T11:19:18.102Z,101375.77
2018-09-19T11:21:46.820Z,101368.98
2018-09-19T11:24:16.072Z,101361.38
2018-09-19T11:26:45.993Z,101356.55
2018-09-19T11:29:15.162Z,101354.19
2018-09-19T11:31:44.288Z,101363.60
2018-09-19T11:34:13.162Z,101359.05
2018-09-19T11:36:42.042Z,101354.25
2018-09-19T11:39:12.537Z,101356.05
2018-09-19T11:41:41.746Z,101344.66
2018-09-19T11:44:10.941Z,101346.07
2018-09-19T11:46:39.765Z,101342.71
2018-09-19T11:49:08.904Z,101347.84
2018-09-19T11:51:38.064Z,101349.55
2018-09-19T11:54:07.692Z,101343.84
2018-09-19T11:56:37.070Z,101341.66
2018-09-19T11:59:06.203Z,101343.48
2018-09-19T12:01:35.128Z,101336.34
2018-09-19T12:04:04.322Z,101332.70
2018-09-19T12:06:33.174Z,101322.40
2018-09-19T12:09:02.315Z,101319.75
2018-09-19T12:11:31.962Z,101319.48
2018-09-19T12:14:07.398Z,101325.02
2018-09-19T12:16:36.561Z,101318.14
2018-09-19T12:19:06.210Z,101318.19
2018-09-19T12:21:35.134Z,101317.19
2018-09-19T12:24:04.114Z,101301.34
2018-09-19T12:26:33.643Z,101303.02
2018-09-19T12:29:02.726Z,101306.02
2018-09-19T12:31:31.930Z,101296.50
2018-09-19T12:34:00.670Z,101294.03
2018-09-19T12:36:29.659Z,101311.03
2018-09-19T12:38:59.389Z,101299.90
2018-09-19T12:41:28.495Z,101293.81
2018-09-19T12:43:57.208Z,101303.36
2018-09-19T12:46:26.112Z,101307.25
2018-09-19T12:48:55.098Z,101308.70
2018-09-19T12:51:24.112Z,101297.97
2018-09-19T12:53:53.562Z,101306.56
2018-09-19T12:56:22.826Z,101302.30
2018-09-19T12:58:51.766Z,101299.31
2018-09-19T13:01:20.587Z,101296.60
2018-09-19T13:03:49.450Z,101295.05
2018-09-19T13:06:18.536Z,101298.64
2018-09-19T13:08:47.748Z,101287.70
2018-09-19T13:11:17.451Z,101281.37
2018-09-19T13:13:46.798Z,101271.52
2018-09-19T13:16:15.774Z,101270.44
2018-09-19T13:18:44.716Z,101263.84
2018-09-19T13:21:14.638Z,101257.03
2018-09-19T13:23:43.843Z,101257.83
2018-09-19T13:26:12.900Z,101255.69
2018-09-19T13:28:41.744Z,101254.05
2018-09-19T13:31:10.570Z,101259.52
2018-09-19T13:33:39.759Z,101257.34
2018-09-19T13:36:08.746Z,101260.31
2018-09-19T13:38:39.421Z,101264.42
2018-09-19T13:41:08.664Z,101261.71
2018-09-19T13:43:37.682Z,101255.95
2018-09-19T13:46:06.701Z,101254.59
2018-09-19T13:48:35.588Z,101246.63
2018-09-19T13:51:12.581Z,101253.50
2018-09-19T13:53:41.517Z,101249.67
2018-09-19T13:56:10.908Z,101245.83
2018-09-19T13:58:40.474Z,101237.58
2018-09-19T14:01:09.911Z,101234.02
2018-09-19T14:03:38.974Z,101235.66
2018-09-19T14:06:08.998Z,101222.55
2018-09-19T14:08:37.909Z,101224.75
2018-09-19T14:11:06.847Z,101225.82
2018-09-19T14:13:35.877Z,101222.53
2018-09-19T14:16:04.728Z,101219.50
2018-09-19T14:18:37.193Z,101216.99
2018-09-19T14:21:06.715Z,101220.53
2018-09-19T14:23:37.143Z,101221.09
2018-09-19T14:26:09.818Z,101226.56
2018-09-19T14:28:43.017Z,101219.71
2018-09-19T14:31:12.242Z,101217.81
2018-09-19T14:33:41.146Z,101224.39
2018-09-19T14:36:10.398Z,101219.77
2018-09-19T14:38:39.940Z,101223.59
2018-09-19T14:41:09.424Z,101217.81
2018-09-19T14:43:38.375Z,101222.50
2018-09-19T14:46:07.650Z,101212.43
2018-09-19T14:48:38.573Z,101215.13
2018-09-19T14:51:07.508Z,101214.59
2018-09-19T14:53:36.557Z,101212.13
2018-09-19T14:56:06.551Z,101210.77
2018-09-19T14:58:35.671Z,101208.02
2018-09-19T15:01:04.821Z,101204.68
2018-09-19T15:03:34.194Z,101210.17
2018-09-19T15:06:03.922Z,101212.63
2018-09-19T15:08:33.337Z,101205.27
2018-09-19T15:11:02.537Z,101199.81
2018-09-19T15:13:31.990Z,101197.62
2018-09-19T15:16:01.149Z,101190.23
2018-09-19T15:18:30.142Z,101183.40
2018-09-19T15:20:59.571Z,101177.35
2018-09-19T15:23:28.482Z,101173.52
2018-09-19T15:25:57.628Z,101178.72
2018-09-19T15:28:28.371Z,101171.88
2018-09-19T15:30:57.674Z,101169.16
2018-09-19T15:33:29.667Z,101168.04
2018-09-19T15:35:59.704Z,101164.22
2018-09-19T15:38:28.524Z,101174.35
2018-09-19T15:40:57.472Z,101170.49
2018-09-19T15:43:26.358Z,101168.04
2018-09-19T15:45:55.431Z,101174.36
2018-09-19T15:48:24.991Z,101168.04
2018-09-19T15:50:54.294Z,101163.13
2018-09-19T15:53:24.357Z,101155.17
2018-09-19T15:55:53.961Z,101157.11
2018-09-19T15:58:23.327Z,101156.03
2018-09-19T16:00:52.509Z,101156.84
2018-09-19T16:03:22.008Z,101155.19
2018-09-19T16:05:51.244Z,101148.91
2018-09-19T16:08:20.494Z,101150.50
2018-09-19T16:10:49.893Z,101151.31
2018-09-19T16:13:19.721Z,101152.65
2018-09-19T16:15:49.291Z,101158.11
2018-09-19T16:18:18.530Z,101153.44
2018-09-19T16:20:47.631Z,101149.56
2018-09-19T16:23:16.629Z,101152.28
2018-09-19T16:25:45.388Z,101159.37
2018-09-19T16:28:14.339Z,101154.47
2018-09-19T16:30:43.185Z,101152.56
2018-09-19T16:33:12.170Z,101154.22
2018-09-19T16:35:41.326Z,101156.70
2018-09-19T16:38:10.916Z,101156.95
2018-09-19T16:40:40.900Z,101157.66
2018-09-19T16:43:10.423Z,101157.88
2018-09-19T16:45:39.432Z,101157.23
2018-09-19T16:48:08.609Z,101154.12
2018-09-19T16:50:38.310Z,101149.73
2018-09-19T16:53:08.221Z,101148.34
2018-09-19T16:55:37.120Z,101156.73
2018-09-19T16:58:06.212Z,101160.48
2018-09-19T17:00:35.106Z,101158.27
2018-09-19T17:03:04.163Z,101159.00
2018-09-19T17:05:33.435Z,101155.95
2018-09-19T17:08:04.537Z,101159.16
2018-09-19T17:10:33.798Z,101158.30
2018-09-19T17:13:02.770Z,101158.55
2018-09-19T17:15:32.039Z,101157.95
2018-09-19T17:18:01.242Z,101160.92
2018-09-19T17:20:30.696Z,101160.38
2018-09-19T17:23:04.788Z,101167.17
2018-09-19T17:25:41.547Z,101157.34
2018-09-19T17:28:10.808Z,101160.06
2018-09-19T17:30:39.722Z,101168.78
2018-09-19T17:33:08.815Z,101167.67
2018-09-19T17:35:37.994Z,101166.23
2018-09-19T17:38:07.054Z,101167.60
2018-09-19T17:40:36.603Z,101164.30
2018-09-19T17:43:05.696Z,101170.57
2018-09-19T17:45:34.748Z,101164.84
2018-09-19T17:48:03.779Z,101165.66
2018-09-19T17:50:32.772Z,101169.25
2018-09-19T17:53:01.900Z,101168.72
2018-09-19T17:55:30.758Z,101175.31
2018-09-19T17:57:59.710Z,101175.59
2018-09-19T18:00:28.892Z,101175.88
2018-09-19T18:02:58.097Z,101183.24
2018-09-19T18:05:27.106Z,101180.80
2018-09-19T18:07:56.302Z,101187.34
2018-09-19T18:10:25.794Z,101182.70
2018-09-19T18:12:54.880Z,101179.97
2018-09-19T18:15:24.077Z,101186.50
2018-09-19T18:17:53.831Z,101184.85
2018-09-19T18:20:22.743Z,101188.05
2018-09-19T18:22:51.686Z,101187.77
2018-09-19T18:25:20.833Z,101189.41
2018-09-19T18:27:52.037Z,101187.22
2018-09-19T18:30:22.650Z,101189.66
2018-09-19T18:32:51.749Z,101192.92
2018-09-19T18:35:20.725Z,101197.30
2018-09-19T18:37:56.758Z,101188.94
2018-09-19T18:40:26.139Z,101193.90
2018-09-19T18:42:55.260Z,101198.28
2018-09-19T18:45:24.621Z,101197.20
2018-09-19T18:50:32.662Z,101197.20
2018-09-19T18:53:19.573Z,101196.13
2018-09-19T18:56:00.761Z,101200.50
2018-09-19T18:58:30.661Z,101199.14
2018-09-19T19:01:00.137Z,101199.97
2018-09-19T19:03:29.315Z,101201.08
2018-09-19T19:05:59.805Z,101202.45
2018-09-19T19:08:28.793Z,101202.16
2018-09-19T19:11:01.365Z,101202.66
2018-09-19T19:13:31.082Z,101204.02
2018-09-19T19:16:00.092Z,101205.05
2018-09-19T19:18:29.572Z,101205.59
2018-09-19T19:20:58.669Z,101208.31
2018-09-19T19:23:27.898Z,101200.61
2018-09-19T19:25:57.110Z,101205.77
2018-09-19T19:28:27.947Z,101210.39
2018-09-19T19:31:04.104Z,101207.67
2018-09-19T19:33:33.618Z,101212.01
2018-09-19T19:36:03.726Z,101210.61
2018-09-19T19:38:32.752Z,101207.88
2018-09-19T19:41:02.497Z,101212.21
2018-09-19T19:43:40.547Z,101210.56
2018-09-19T19:48:53.586Z,101212.42
2018-09-19T19:51:22.756Z,101216.76
2018-09-19T19:53:53.036Z,101212.38
2018-09-19T19:56:23.227Z,101216.17
2018-09-19T19:58:53.003Z,101208.53
2018-09-19T20:01:21.902Z,101206.34
2018-09-19T20:03:51.038Z,101208.16
2018-09-19T20:06:19.842Z,101215.50
2018-09-19T20:08:48.683Z,101218.47
2018-09-19T20:11:17.848Z,101218.19
2018-09-19T20:13:47.415Z,101222.80
2018-09-19T20:16:16.638Z,101224.41
2018-09-19T20:18:45.675Z,101225.98
2018-09-19T20:21:14.873Z,101233.86
2018-09-19T20:23:43.991Z,101229.96
2018-09-19T20:26:14.001Z,101236.47
2018-09-19T20:28:42.753Z,101238.91
2018-09-19T20:31:11.565Z,101239.69
2018-09-19T20:33:40.332Z,101236.08
2018-09-19T20:36:09.119Z,101236.03
2018-09-19T20:38:38.749Z,101235.48
2018-09-19T20:41:08.012Z,101240.64
2018-09-19T20:43:38.484Z,101231.03
2018-09-19T20:46:08.881Z,101228.80
2018-09-19T20:48:38.508Z,101228.78
2018-09-19T20:51:07.941Z,101231.45
2018-09-19T20:53:37.543Z,101233.59
2018-09-19T20:56:06.945Z,101232.47
2018-09-19T20:58:35.679Z,101231.64
2018-09-19T21:01:04.626Z,101235.44
2018-09-19T21:03:33.654Z,101232.42
2018-09-19T21:06:02.711Z,101232.42
2018-09-19T21:08:31.755Z,101225.84
2018-09-19T21:11:01.106Z,101238.88
2018-09-19T21:13:30.103Z,101238.00
2018-09-19T21:15:59.552Z,101236.03
2018-09-19T21:18:28.910Z,101242.84
2018-09-19T21:20:57.720Z,101243.37
2018-09-19T21:23:26.791Z,101244.96
2018-09-19T21:25:55.580Z,101242.42
2018-09-19T21:28:24.745Z,101243.13
2018-09-19T21:30:53.934Z,101243.37
2018-09-19T21:33:23.198Z,101240.92
2018-09-19T21:35:51.975Z,101243.89
2018-09-19T21:38:20.820Z,101236.74
2018-09-19T21:40:49.995Z,101239.47
2018-09-19T21:43:18.776Z,101233.20
2018-09-19T21:45:47.561Z,101231.83
2018-09-19T21:48:16.634Z,101238.62
2018-09-19T21:50:45.467Z,101239.69
2018-09-19T21:53:14.619Z,101239.98
2018-09-19T21:55:43.757Z,101241.34
2018-09-19T21:58:12.606Z,101242.16
2018-09-19T22:00:41.591Z,101239.02
2018-09-19T22:03:11.014Z,101237.50
2018-09-19T22:05:40.222Z,101231.98
2018-09-19T22:08:09.317Z,101233.22
2018-09-19T22:10:38.080Z,101236.12
2018-09-19T22:13:06.937Z,101233.61
2018-09-19T22:15:35.877Z,101230.55
2018-09-19T22:18:04.610Z,101235.37
2018-09-19T22:20:33.766Z,101237.20
2018-09-19T22:23:03.276Z,101233.63
2018-09-19T22:25:32.096Z,101235.23
2018-09-19T22:28:00.790Z,101239.84
2018-09-19T22:30:30.563Z,101235.94
2018-09-19T22:32:59.537Z,101234.88
2018-09-19T22:35:28.378Z,101226.69
2018-09-19T22:37:57.340Z,101228.31
2018-09-19T22:40:26.106Z,101229.97
2018-09-19T22:42:54.890Z,101227.52
2018-09-19T22:45:23.804Z,101233.73
2018-09-19T22:47:52.605Z,101227.70
2018-09-19T22:50:21.473Z,101226.87
2018-09-19T22:52:50.447Z,101225.96
2018-09-19T22:55:19.248Z,101225.31
2018-09-19T22:57:48.030Z,101226.58
2018-09-19T23:00:17.164Z,101214.88
2018-09-19T23:02:46.262Z,101218.19
2018-09-19T23:05:15.019Z,101219.31
2018-09-19T23:07:43.814Z,101220.17
2018-09-19T23:10:12.588Z,101217.22
2018-09-19T23:12:41.743Z,101217.98
2018-09-19T23:15:10.848Z,101223.63
2018-09-19T23:17:39.639Z,101219.55
2018-09-19T23:20:09.039Z,101220.37
2018-09-19T23:22:37.804Z,101219.55
2018-09-19T23:25:06.594Z,101218.19
2018-09-19T23:27:35.707Z,101212.46
2018-09-19T23:30:05.308Z,101212.99
2018-09-19T23:32:34.510Z,101217.30
2018-09-19T23:35:03.637Z,101214.03
2018-09-19T23:37:32.757Z,101217.22
2018-09-19T23:40:01.504Z,101216.89
2018-09-19T23:42:31.327Z,101220.37
2018-09-19T23:45:00.795Z,101226.87
2018-09-19T23:47:30.510Z,101220.78
2018-09-19T23:49:59.506Z,101223.67
2018-09-19T23:52:28.800Z,101226.09
2018-09-19T23:54:57.569Z,101224.44
2018-09-19T23:57:26.439Z,101221.92
2018-09-19T23:59:55.492Z,101221.34
